This is the latest recevied weather packets stored in our database for station/object ESUT. If no packets are shown the sender has not sent any weather packets the latest 10 day(s).
| Time | Temp. | Humidity | Pressure | Rain* | Wind** | Luminosity | Snow |
|---|---|---|---|---|---|---|---|
| 1777723389 | 2.78° C | 64% | 1005 hPa | - | - | - | - |
| 1777721590 | 1.67° C | 74% | 1005 hPa | - | - | - | - |
| 1777719789 | 2.78° C | 69% | 1005 hPa | - | - | - | - |
| 1777717988 | 2.78° C | 59% | 1005 hPa | - | - | - | - |
| 1777716189 | 2.78° C | 64% | 1005 hPa | - | - | - | - |
| 1777714390 | 2.78° C | 69% | 1004 hPa | - | - | - | - |
| 1777712588 | 1.67° C | 86% | 1004 hPa | - | - | - | - |
| 1777710788 | 1.67° C | 86% | 1003 hPa | - | - | - | - |
| 1777708987 | 0.56° C | 93% | 1003 hPa | - | - | - | - |
| 1777707187 | 2.78° C | 86% | 1003 hPa | - | - | - | - |
| 1777705390 | 1.67° C | 93% | 1003 hPa | - | - | - | - |
| 1777703588 | 2.78° C | 93% | 1002 hPa | - | - | - | - |
| 1777701789 | 3.89° C | 93% | 1002 hPa | - | - | - | - |
| 1777699989 | 3.89° C | 93% | 1002 hPa | - | - | - | - |
| 1777698188 | 3.89° C | 93% | 1002 hPa | - | - | - | - |
| 1777696409 | 3.89° C | 10% | - | - | - | - | - |
| 1777694588 | 3.89° C | 10% | - | - | - | - | - |
| 1777692791 | 5° C | 86% | 1003 hPa | - | - | - | - |
| 1777690989 | 5° C | 86% | 1003 hPa | - | - | - | - |
| 1777689209 | 5° C | 93% | 1003 hPa | - | - | - | - |
| 1777687388 | 5° C | 86% | 1004 hPa | - | - | - | - |
| 1777685588 | 5.56° C | 81% | 1004 hPa | - | - | - | - |
| 1777683790 | 5.56° C | 81% | 1004 hPa | - | - | - | - |
| 1777681990 | 5.56° C | 75% | 1005 hPa | - | - | - | - |
| 1777680191 | 5.56° C | 75% | 1005 hPa | - | - | - | - |
* Rain since midnight (hover to see other rain measurements)
** Current wind speed in m/s (hover to see current wind gust speed)